createdAt,value
2023-02-20T00:02:39.548Z,5.92
2023-02-20T00:05:42.860Z,5.81
2023-02-20T00:08:45.341Z,5.73
2023-02-20T00:11:47.996Z,5.87
2023-02-20T00:14:50.308Z,5.85
2023-02-20T00:17:53.144Z,5.75
2023-02-20T00:20:55.446Z,5.84
2023-02-20T00:23:58.062Z,5.79
2023-02-20T00:27:00.688Z,5.87
2023-02-20T00:30:05.223Z,5.87
2023-02-20T00:33:07.572Z,5.73
2023-02-20T00:36:16.548Z,5.82
2023-02-20T00:39:19.245Z,5.67
2023-02-20T00:42:21.862Z,5.82
2023-02-20T00:45:24.173Z,5.71
2023-02-20T00:48:26.814Z,5.64
2023-02-20T00:51:43.971Z,5.63
2023-02-20T00:54:47.290Z,5.72
2023-02-20T00:57:49.631Z,5.72
2023-02-20T01:00:52.342Z,5.65
2023-02-20T01:03:54.760Z,5.68
2023-02-20T01:06:57.403Z,5.58
2023-02-20T01:09:59.692Z,5.72
2023-02-20T01:13:02.328Z,5.76
2023-02-20T01:16:05.825Z,5.74
2023-02-20T01:19:08.945Z,5.70
2023-02-20T01:22:11.387Z,5.61
2023-02-20T01:25:14.053Z,5.38
2023-02-20T01:28:16.641Z,5.47
2023-02-20T01:31:19.361Z,5.39
2023-02-20T01:34:22.133Z,5.39
2023-02-20T01:37:24.794Z,5.31
2023-02-20T01:40:28.436Z,5.23
2023-02-20T01:43:31.150Z,5.27
2023-02-20T01:46:54.562Z,5.24
2023-02-20T01:50:03.327Z,5.21
2023-02-20T01:53:13.214Z,5.17
2023-02-20T01:56:18.385Z,5.07
2023-02-20T01:59:23.459Z,4.97
2023-02-20T02:02:31.124Z,4.99
2023-02-20T02:05:36.869Z,4.94
2023-02-20T02:08:42.256Z,5.01
2023-02-20T02:11:45.683Z,4.93
2023-02-20T02:14:48.204Z,4.87
2023-02-20T02:18:02.708Z,4.67
2023-02-20T02:21:36.113Z,4.85
2023-02-20T02:25:01.070Z,4.85
2023-02-20T02:28:40.723Z,4.86
2023-02-20T02:32:01.865Z,4.73
2023-02-20T02:35:36.419Z,4.68
2023-02-20T02:39:05.500Z,4.67
2023-02-20T02:43:01.815Z,4.70
2023-02-20T02:46:13.774Z,4.71
2023-02-20T02:49:51.542Z,4.73
2023-02-20T02:52:55.452Z,4.73
2023-02-20T02:55:57.812Z,4.69
2023-02-20T02:59:00.616Z,4.55
2023-02-20T03:02:08.687Z,4.46
2023-02-20T03:05:15.657Z,4.52
2023-02-20T03:08:40.351Z,4.42
2023-02-20T03:11:44.427Z,4.61
2023-02-20T03:15:37.880Z,4.64
2023-02-20T03:18:41.615Z,4.60
2023-02-20T03:21:48.321Z,4.62
2023-02-20T03:24:59.989Z,4.45
2023-02-20T03:28:16.508Z,4.51
2023-02-20T03:31:34.554Z,4.45
2023-02-20T03:34:57.537Z,4.48
2023-02-20T03:38:24.520Z,4.57
2023-02-20T03:41:49.611Z,4.53
2023-02-20T03:44:53.367Z,4.38
2023-02-20T03:48:01.525Z,4.49
2023-02-20T03:51:12.993Z,4.40
2023-02-20T03:54:16.707Z,4.42
2023-02-20T03:57:33.808Z,4.34
2023-02-20T04:00:42.239Z,4.38
2023-02-20T04:03:48.571Z,4.26
2023-02-20T04:06:53.206Z,4.30
2023-02-20T04:10:01.577Z,4.29
2023-02-20T04:13:06.612Z,4.17
2023-02-20T04:16:10.261Z,4.18
2023-02-20T04:19:13.894Z,4.03
2023-02-20T04:22:26.826Z,4.13
2023-02-20T04:25:51.686Z,4.23
2023-02-20T04:28:54.801Z,4.18
2023-02-20T04:31:57.661Z,4.20
2023-02-20T04:35:01.245Z,4.28
2023-02-20T04:38:04.216Z,4.26
2023-02-20T04:41:06.962Z,4.39
2023-02-20T04:44:28.757Z,4.33
2023-02-20T04:47:32.726Z,4.22
2023-02-20T04:50:35.786Z,4.38
2023-02-20T04:53:38.908Z,4.30
2023-02-20T04:56:41.336Z,4.29
2023-02-20T04:59:44.622Z,4.23
2023-02-20T05:02:46.987Z,4.33
2023-02-20T05:05:49.634Z,4.18
2023-02-20T05:08:51.996Z,4.21
2023-02-20T05:11:55.058Z,4.23
2023-02-20T05:14:57.456Z,4.20
2023-02-20T05:18:00.207Z,4.15
2023-02-20T05:21:21.101Z,4.38
2023-02-20T05:24:24.346Z,4.44
2023-02-20T05:27:28.024Z,4.38
2023-02-20T05:30:30.672Z,4.45
2023-02-20T05:33:33.559Z,4.48
2023-02-20T05:36:36.344Z,4.47
2023-02-20T05:39:38.671Z,4.53
2023-02-20T05:42:41.640Z,4.48
2023-02-20T05:45:44.230Z,4.38
2023-02-20T05:48:50.625Z,4.56
2023-02-20T05:51:55.839Z,4.47
2023-02-20T05:54:58.512Z,4.61
2023-02-20T05:58:00.842Z,4.46
2023-02-20T06:01:03.697Z,4.34
2023-02-20T06:04:06.435Z,4.25
2023-02-20T06:07:10.482Z,4.37
2023-02-20T06:10:14.859Z,4.34
2023-02-20T06:13:17.181Z,4.32
2023-02-20T06:16:25.305Z,4.54
2023-02-20T06:19:27.641Z,4.56
2023-02-20T06:22:30.256Z,4.67
2023-02-20T06:25:32.565Z,4.34
2023-02-20T06:28:35.248Z,4.44
2023-02-20T06:31:37.951Z,4.43
2023-02-20T06:34:40.725Z,4.44
2023-02-20T06:37:43.123Z,4.57
2023-02-20T06:40:45.813Z,4.62
2023-02-20T06:43:48.113Z,4.77
2023-02-20T06:46:50.791Z,4.79
2023-02-20T06:49:53.124Z,4.79
2023-02-20T06:52:55.845Z,4.93
2023-02-20T06:55:58.266Z,4.76
2023-02-20T06:59:02.682Z,4.73
2023-02-20T07:02:05.106Z,4.65
2023-02-20T07:05:09.345Z,4.68
2023-02-20T07:08:11.720Z,4.87
2023-02-20T07:11:16.642Z,4.87
2023-02-20T07:14:18.954Z,5.15
2023-02-20T07:17:21.641Z,5.11
2023-02-20T07:20:24.031Z,5.14
2023-02-20T07:23:26.859Z,5.08
2023-02-20T07:26:30.282Z,4.99
2023-02-20T07:29:33.028Z,4.89
2023-02-20T07:32:35.374Z,4.94
2023-02-20T07:35:38.024Z,5.15
2023-02-20T07:38:40.659Z,5.32
2023-02-20T07:41:43.353Z,5.34
2023-02-20T07:44:50.206Z,5.41
2023-02-20T07:47:52.912Z,5.56
2023-02-20T07:50:55.264Z,5.56
2023-02-20T07:53:58.211Z,5.50
2023-02-20T07:57:00.651Z,5.64
2023-02-20T08:00:04.701Z,5.68
2023-02-20T08:03:14.442Z,5.37
2023-02-20T08:06:19.187Z,5.63
2023-02-20T08:09:21.609Z,5.58
2023-02-20T08:12:24.256Z,5.77
2023-02-20T08:15:26.727Z,5.98
2023-02-20T08:18:29.427Z,6.08
2023-02-20T08:21:31.840Z,6.02
2023-02-20T08:24:34.492Z,6.04
2023-02-20T08:27:38.482Z,6.30
2023-02-20T08:30:41.397Z,6.46
2023-02-20T08:33:43.787Z,6.48
2023-02-20T08:36:46.436Z,6.63
2023-02-20T08:39:48.839Z,6.72
2023-02-20T08:42:51.621Z,6.75
2023-02-20T08:45:54.069Z,6.78
2023-02-20T08:48:56.813Z,6.90
2023-02-20T08:51:59.194Z,6.84
2023-02-20T08:55:01.883Z,6.99
2023-02-20T08:58:04.474Z,7.16
2023-02-20T09:01:07.368Z,7.01
2023-02-20T09:04:10.897Z,7.15
2023-02-20T09:07:14.545Z,7.15
2023-02-20T09:10:20.621Z,7.35
2023-02-20T09:13:23.658Z,7.31
2023-02-20T09:16:26.088Z,7.27
2023-02-20T09:19:28.780Z,7.32
2023-02-20T09:22:31.176Z,7.73
2023-02-20T09:25:34.235Z,7.55
2023-02-20T09:28:36.680Z,7.63
2023-02-20T09:31:39.481Z,7.66
2023-02-20T09:34:41.929Z,7.53
2023-02-20T09:37:45.010Z,7.49
2023-02-20T09:40:53.043Z,7.54
2023-02-20T09:44:09.026Z,7.85
2023-02-20T09:47:50.329Z,8.10
2023-02-20T09:50:57.920Z,8.22
2023-02-20T09:54:17.665Z,8.10
2023-02-20T09:57:27.750Z,8.47
2023-02-20T10:00:35.804Z,8.36
2023-02-20T10:03:40.317Z,8.34
2023-02-20T10:06:45.210Z,8.25
2023-02-20T10:09:48.005Z,8.52
2023-02-20T10:12:53.185Z,8.57
2023-02-20T10:16:02.080Z,8.50
2023-02-20T10:19:10.584Z,8.46
2023-02-20T10:22:15.323Z,8.78
2023-02-20T10:25:43.909Z,8.67
2023-02-20T10:28:50.065Z,8.99
2023-02-20T10:32:08.150Z,8.82
2023-02-20T10:35:21.859Z,9.04
2023-02-20T10:38:30.199Z,9.23
2023-02-20T10:41:40.507Z,9.30
2023-02-20T10:44:51.903Z,9.60
2023-02-20T10:48:05.928Z,9.96
2023-02-20T10:51:33.526Z,10.15
2023-02-20T10:54:44.953Z,10.16
2023-02-20T10:57:53.956Z,9.96
2023-02-20T11:01:00.900Z,10.02
2023-02-20T11:04:15.364Z,10.07
2023-02-20T11:07:19.620Z,10.03
2023-02-20T11:10:21.956Z,10.12
2023-02-20T11:13:26.096Z,10.07
2023-02-20T11:16:33.233Z,10.17
2023-02-20T11:19:53.479Z,10.24
2023-02-20T11:22:57.128Z,10.37
2023-02-20T11:26:21.784Z,10.57
2023-02-20T11:29:25.100Z,10.62
2023-02-20T11:32:48.153Z,10.77
2023-02-20T11:35:57.397Z,10.98
2023-02-20T11:39:03.335Z,10.77
2023-02-20T11:42:12.116Z,10.58
2023-02-20T11:45:25.020Z,10.55
2023-02-20T11:48:27.529Z,10.59
2023-02-20T11:51:36.989Z,10.55
2023-02-20T11:54:40.758Z,10.74
2023-02-20T11:57:45.036Z,10.96
2023-02-20T12:00:50.105Z,11.06
2023-02-20T12:03:58.070Z,11.27
2023-02-20T12:07:00.539Z,11.26
2023-02-20T12:10:32.581Z,11.55
2023-02-20T12:13:48.378Z,11.74
2023-02-20T12:17:34.623Z,11.55
2023-02-20T12:20:44.420Z,11.70
2023-02-20T12:24:02.506Z,11.91
2023-02-20T12:27:27.655Z,12.04
2023-02-20T12:31:04.441Z,12.25
2023-02-20T12:34:28.730Z,12.42
2023-02-20T12:38:00.936Z,12.64
2023-02-20T12:41:29.724Z,12.48
2023-02-20T12:44:54.738Z,12.29
2023-02-20T12:48:22.602Z,12.45
2023-02-20T12:51:32.333Z,12.57
2023-02-20T12:54:55.705Z,12.86
2023-02-20T12:58:19.078Z,12.92
2023-02-20T13:01:38.270Z,12.87
2023-02-20T13:04:52.766Z,12.82
2023-02-20T13:08:05.070Z,12.58
2023-02-20T13:11:18.942Z,12.78
2023-02-20T13:14:55.899Z,12.80
2023-02-20T13:18:18.155Z,12.70
2023-02-20T13:21:25.192Z,12.71
2023-02-20T13:24:35.440Z,12.58
2023-02-20T13:27:37.852Z,12.48
2023-02-20T13:30:41.419Z,12.54
2023-02-20T13:33:50.186Z,12.63
2023-02-20T13:36:52.845Z,12.60
2023-02-20T13:39:55.163Z,12.56
2023-02-20T13:43:13.061Z,12.69
2023-02-20T13:46:20.497Z,12.56
2023-02-20T13:49:58.813Z,12.59
2023-02-20T13:53:03.211Z,12.73
2023-02-20T13:56:14.821Z,12.68
2023-02-20T13:59:20.509Z,12.70
2023-02-20T14:02:24.359Z,12.47
2023-02-20T14:05:31.688Z,12.58
2023-02-20T14:08:35.449Z,12.50
2023-02-20T14:11:40.343Z,12.47
2023-02-20T14:14:45.488Z,12.49
2023-02-20T14:17:51.255Z,12.48
2023-02-20T14:21:18.671Z,12.38
2023-02-20T14:24:27.414Z,12.46
2023-02-20T14:27:32.492Z,12.40
2023-02-20T14:30:35.281Z,12.40
2023-02-20T14:33:37.720Z,12.40
2023-02-20T14:37:16.878Z,12.46
2023-02-20T14:40:31.746Z,12.44
2023-02-20T14:43:35.734Z,12.41
2023-02-20T14:46:38.181Z,12.26
2023-02-20T14:49:41.561Z,12.32
2023-02-20T14:52:44.256Z,12.35
2023-02-20T14:55:50.344Z,12.28
2023-02-20T14:58:52.952Z,12.30
2023-02-20T15:01:59.040Z,12.20
2023-02-20T15:05:05.978Z,12.23
2023-02-20T15:08:17.648Z,12.25
2023-02-20T15:11:20.051Z,12.25
2023-02-20T15:14:32.046Z,12.23
2023-02-20T15:17:37.636Z,12.12
2023-02-20T15:20:43.026Z,12.18
2023-02-20T15:23:47.548Z,12.08
2023-02-20T15:26:50.219Z,12.07
2023-02-20T15:30:28.382Z,12.17
2023-02-20T15:33:34.541Z,12.14
2023-02-20T15:36:37.135Z,11.97
2023-02-20T15:39:41.121Z,11.87
2023-02-20T15:42:43.633Z,11.65
2023-02-20T15:45:47.354Z,11.58
2023-02-20T15:48:49.780Z,11.51
2023-02-20T15:51:56.185Z,11.43
2023-02-20T15:55:01.879Z,11.36
2023-02-20T15:58:22.690Z,11.22
2023-02-20T16:01:26.210Z,11.23
2023-02-20T16:04:28.952Z,11.13
2023-02-20T16:07:31.405Z,11.16
2023-02-20T16:10:34.189Z,11.05
2023-02-20T16:13:40.057Z,11.12
2023-02-20T16:16:45.105Z,11.09
2023-02-20T16:19:47.557Z,10.95
2023-02-20T16:22:51.199Z,10.90
2023-02-20T16:25:53.555Z,10.94
2023-02-20T16:29:02.018Z,10.90
2023-02-20T16:32:04.505Z,10.74
2023-02-20T16:35:12.158Z,10.80
2023-02-20T16:38:15.051Z,10.73
2023-02-20T16:41:17.788Z,10.68
2023-02-20T16:44:40.248Z,10.61
2023-02-20T16:47:43.529Z,10.60
2023-02-20T16:50:51.622Z,10.55
2023-02-20T16:53:54.584Z,10.53
2023-02-20T16:56:57.035Z,10.54
2023-02-20T17:00:00.946Z,10.51
2023-02-20T17:03:04.581Z,10.48
2023-02-20T17:06:07.454Z,10.43
2023-02-20T17:09:10.006Z,10.41
2023-02-20T17:12:16.115Z,10.24
2023-02-20T17:15:20.703Z,10.19
2023-02-20T17:18:23.354Z,10.21
2023-02-20T17:21:25.779Z,10.19
2023-02-20T17:24:28.400Z,10.06
2023-02-20T17:27:30.851Z,10.04
2023-02-20T17:30:33.649Z,9.98
2023-02-20T17:33:35.969Z,10.08
2023-02-20T17:36:47.886Z,10.03
2023-02-20T17:39:50.209Z,10.04
2023-02-20T17:42:52.872Z,10.02
2023-02-20T17:45:55.277Z,9.96
2023-02-20T17:48:57.935Z,9.93
2023-02-20T17:52:00.398Z,9.89
2023-02-20T17:55:03.117Z,9.85
2023-02-20T17:58:06.416Z,9.72
2023-02-20T18:01:09.993Z,9.79
2023-02-20T18:04:13.154Z,9.63
2023-02-20T18:07:17.493Z,9.65
2023-02-20T18:10:20.691Z,9.76
2023-02-20T18:13:23.179Z,9.64
2023-02-20T18:16:27.107Z,9.73
2023-02-20T18:19:29.605Z,9.57
2023-02-20T18:22:32.229Z,9.72
2023-02-20T18:25:40.473Z,9.56
2023-02-20T18:28:44.076Z,9.57
2023-02-20T18:31:47.276Z,9.57
2023-02-20T18:34:50.031Z,9.52
2023-02-20T18:37:52.424Z,9.64
2023-02-20T18:40:55.206Z,9.64
2023-02-20T18:43:57.612Z,9.61
2023-02-20T18:47:00.646Z,9.48
2023-02-20T18:50:03.224Z,9.58
2023-02-20T18:53:05.854Z,9.64
2023-02-20T18:56:13.106Z,9.67
2023-02-20T18:59:16.985Z,9.66
2023-02-20T19:02:19.389Z,9.60
2023-02-20T19:05:23.221Z,9.79
2023-02-20T19:08:25.590Z,9.69
2023-02-20T19:11:28.987Z,9.79
2023-02-20T19:14:31.379Z,10.02
2023-02-20T19:17:34.716Z,9.99
2023-02-20T19:20:37.100Z,10.11
2023-02-20T19:23:40.933Z,10.15
2023-02-20T19:26:43.450Z,10.00
2023-02-20T19:29:46.229Z,10.10
2023-02-20T19:32:48.734Z,10.19
2023-02-20T19:35:51.881Z,10.16
2023-02-20T19:38:54.246Z,10.31
2023-02-20T19:41:57.014Z,10.34
2023-02-20T19:44:59.333Z,10.36
2023-02-20T19:48:02.033Z,10.36
2023-02-20T19:51:08.449Z,10.46
2023-02-20T19:54:11.095Z,10.32
2023-02-20T19:57:14.390Z,10.42
2023-02-20T20:00:19.367Z,10.34
2023-02-20T20:03:22.340Z,10.45
2023-02-20T20:06:26.944Z,10.46
2023-02-20T20:09:36.549Z,10.49
2023-02-20T20:12:48.779Z,10.55
2023-02-20T20:15:51.451Z,10.53
2023-02-20T20:18:54.463Z,10.65
2023-02-20T20:21:57.081Z,10.52
2023-02-20T20:24:59.624Z,10.60
2023-02-20T20:28:04.553Z,10.51
2023-02-20T20:31:06.907Z,10.57
2023-02-20T20:34:09.948Z,10.61
2023-02-20T20:37:12.307Z,10.58
2023-02-20T20:40:16.868Z,10.53
2023-02-20T20:43:19.360Z,10.39
2023-02-20T20:46:22.120Z,10.43
2023-02-20T20:49:24.417Z,10.43
2023-02-20T20:52:28.565Z,10.37
2023-02-20T20:55:31.047Z,10.26
2023-02-20T20:58:33.732Z,10.32
2023-02-20T21:01:36.092Z,10.32
2023-02-20T21:04:40.814Z,10.31
2023-02-20T21:07:44.184Z,10.29
2023-02-20T21:10:47.029Z,10.14
2023-02-20T21:13:49.417Z,10.19
2023-02-20T21:16:52.072Z,10.17
2023-02-20T21:19:54.463Z,10.13
2023-02-20T21:22:59.055Z,10.09
2023-02-20T21:26:01.386Z,9.94
2023-02-20T21:29:04.678Z,10.02
2023-02-20T21:32:07.462Z,9.95
2023-02-20T21:35:12.270Z,10.01
2023-02-20T21:38:14.667Z,9.99
2023-02-20T21:41:40.900Z,9.86
2023-02-20T21:44:47.671Z,9.85
2023-02-20T21:47:50.357Z,9.84
2023-02-20T21:50:52.671Z,9.96
2023-02-20T21:53:55.347Z,9.93
2023-02-20T21:56:58.804Z,9.83
2023-02-20T22:00:01.639Z,9.97
2023-02-20T22:03:04.426Z,9.97
2023-02-20T22:06:07.028Z,9.97
2023-02-20T22:09:28.238Z,9.88
2023-02-20T22:12:50.766Z,9.92
2023-02-20T22:16:11.742Z,9.96
2023-02-20T22:19:32.778Z,9.82
2023-02-20T22:22:55.679Z,9.93
2023-02-20T22:26:17.206Z,9.79
2023-02-20T22:29:38.250Z,9.98
2023-02-20T22:32:59.761Z,10.11
2023-02-20T22:36:21.201Z,10.28
2023-02-20T22:39:42.425Z,10.14
2023-02-20T22:43:03.520Z,10.31
2023-02-20T22:46:25.971Z,10.34
2023-02-20T22:49:48.399Z,10.24
2023-02-20T22:53:09.841Z,10.21
2023-02-20T22:56:38.658Z,10.26
2023-02-20T23:00:00.310Z,10.24
2023-02-20T23:03:21.300Z,10.43
2023-02-20T23:06:42.745Z,10.45
2023-02-20T23:10:03.602Z,10.36
2023-02-20T23:13:25.351Z,10.43
2023-02-20T23:16:46.298Z,10.45
2023-02-20T23:20:07.508Z,10.21
2023-02-20T23:23:29.890Z,10.07
2023-02-20T23:26:52.366Z,10.00
2023-02-20T23:30:13.442Z,9.84
2023-02-20T23:33:34.526Z,9.60
2023-02-20T23:36:55.448Z,9.57
2023-02-20T23:40:21.265Z,9.46
2023-02-20T23:43:47.890Z,9.39
2023-02-20T23:47:09.369Z,9.33
2023-02-20T23:50:30.320Z,9.34
2023-02-20T23:53:56.172Z,9.31
2023-02-20T23:57:17.287Z,9.18
